createdAt,value
2022-09-14T00:00:00.895Z,15.1
2022-09-14T00:02:01.060Z,14.9
2022-09-14T00:04:00.912Z,15
2022-09-14T00:06:00.951Z,15.1
2022-09-14T00:09:00.969Z,15.1
2022-09-14T00:11:00.925Z,15
2022-09-14T00:14:00.931Z,15.1
2022-09-14T00:16:00.948Z,15
2022-09-14T00:17:00.967Z,15.1
2022-09-14T00:18:00.957Z,15.2
2022-09-14T00:20:00.913Z,15
2022-09-14T00:21:00.946Z,15.2
2022-09-14T00:24:00.959Z,15.1
2022-09-14T00:27:00.916Z,15.2
2022-09-14T00:28:00.899Z,15.1
2022-09-14T00:29:00.895Z,15.2
2022-09-14T00:32:00.997Z,15.1
2022-09-14T00:35:00.896Z,15.2
2022-09-14T00:36:00.928Z,15.1
2022-09-14T00:37:00.899Z,15
2022-09-14T00:38:00.961Z,15.1
2022-09-14T00:40:00.967Z,15.1
2022-09-14T00:42:00.968Z,15.2
2022-09-14T00:43:00.961Z,15.1
2022-09-14T00:46:00.959Z,15.3
2022-09-14T00:47:00.948Z,15.2
2022-09-14T00:49:00.929Z,15.2
2022-09-14T00:52:00.952Z,15.3
2022-09-14T00:54:00.974Z,15.2
2022-09-14T01:00:00.935Z,15.3
2022-09-14T01:03:00.953Z,15.2
2022-09-14T01:05:00.947Z,15.3
2022-09-14T01:07:01.011Z,15.2
2022-09-14T01:09:00.906Z,15.2
2022-09-14T01:10:00.980Z,15.3
2022-09-14T01:11:00.931Z,15.1
2022-09-14T01:12:00.975Z,15.2
2022-09-14T01:17:00.942Z,15.1
2022-09-14T01:18:00.922Z,15.3
2022-09-14T01:19:00.941Z,15.1
2022-09-14T01:20:00.950Z,15.3
2022-09-14T01:21:00.964Z,15.2
2022-09-14T01:23:00.970Z,15.3
2022-09-14T01:26:01.032Z,15.4
2022-09-14T01:30:00.991Z,15.1
2022-09-14T01:31:00.980Z,15.3
2022-09-14T01:34:00.978Z,15.4
2022-09-14T01:37:00.898Z,15.3
2022-09-14T01:42:00.934Z,15.4
2022-09-14T01:43:00.934Z,15.3
2022-09-14T01:46:00.976Z,15.4
2022-09-14T01:47:00.948Z,15.3
2022-09-14T01:49:01.026Z,15.1
2022-09-14T01:50:00.906Z,15.3
2022-09-14T01:51:00.949Z,15.2
2022-09-14T01:53:00.916Z,15.2
2022-09-14T01:56:00.914Z,15.1
2022-09-14T01:57:00.903Z,15.2
2022-09-14T01:59:00.912Z,15.3
2022-09-14T02:00:00.927Z,15.2
2022-09-14T02:04:00.928Z,15.2
2022-09-14T02:06:00.918Z,15.3
2022-09-14T02:07:00.902Z,15.4
2022-09-14T02:09:00.925Z,15.3
2022-09-14T02:10:00.929Z,15.2
2022-09-14T02:11:00.955Z,15.3
2022-09-14T02:13:00.952Z,15.4
2022-09-14T02:15:00.915Z,15.2
2022-09-14T02:16:00.962Z,15.3
2022-09-14T02:18:00.943Z,15.4
2022-09-14T02:19:00.923Z,15.3
2022-09-14T02:27:00.928Z,15.2
2022-09-14T02:28:00.976Z,15.3
2022-09-14T02:34:00.923Z,15.4
2022-09-14T02:36:00.902Z,15.5
2022-09-14T02:37:00.963Z,15.3
2022-09-14T02:39:00.954Z,15.4
2022-09-14T02:42:00.963Z,15.5
2022-09-14T02:44:00.914Z,15.4
2022-09-14T02:45:00.925Z,15.5
2022-09-14T02:48:00.963Z,15.6
2022-09-14T02:50:00.927Z,15.6
2022-09-14T02:52:00.948Z,15.5
2022-09-14T02:53:00.946Z,15.4
2022-09-14T02:55:00.945Z,15.3
2022-09-14T02:58:00.931Z,15.5
2022-09-14T03:00:00.911Z,15.4
2022-09-14T03:02:01.007Z,15.5
2022-09-14T03:07:01.019Z,15.4
2022-09-14T03:10:00.921Z,15.4
2022-09-14T03:11:00.917Z,15.5
2022-09-14T03:14:00.967Z,15.5
2022-09-14T03:16:01.030Z,15.5
2022-09-14T03:18:00.921Z,15.5
2022-09-14T03:19:00.968Z,15.4
2022-09-14T03:21:00.930Z,15.4
2022-09-14T03:22:00.917Z,15.5
2022-09-14T03:23:00.905Z,15.4
2022-09-14T03:24:00.958Z,15.5
2022-09-14T03:27:00.966Z,15.7
2022-09-14T03:30:01.146Z,15.4
2022-09-14T03:32:01.009Z,15.4
2022-09-14T03:34:00.958Z,15.4
2022-09-14T03:35:00.960Z,15.5
2022-09-14T03:37:00.935Z,15.4
2022-09-14T03:41:00.963Z,15.5
2022-09-14T03:43:01.110Z,15.5
2022-09-14T03:49:00.923Z,15.5
2022-09-14T03:51:00.921Z,15.4
2022-09-14T03:53:00.934Z,15.5
2022-09-14T03:56:00.920Z,15.2
2022-09-14T03:58:01.010Z,15.4
2022-09-14T04:03:01.018Z,15.2
2022-09-14T04:04:00.974Z,15.3
2022-09-14T04:06:00.954Z,15.3
2022-09-14T04:09:00.979Z,15.2
2022-09-14T04:12:00.938Z,15.3
2022-09-14T04:15:00.923Z,15.2
2022-09-14T04:17:00.959Z,15.1
2022-09-14T04:18:01.080Z,15.3
2022-09-14T04:20:01.010Z,15.2
2022-09-14T04:22:00.940Z,15.3
2022-09-14T04:23:00.921Z,15
2022-09-14T04:25:00.928Z,15.2
2022-09-14T04:27:00.953Z,15.3
2022-09-14T04:28:17.073Z,15.2
2022-09-14T04:29:00.947Z,15.3
2022-09-14T04:30:01.009Z,15.1
2022-09-14T04:32:00.965Z,15.4
2022-09-14T04:34:00.977Z,15.3
2022-09-14T04:36:00.955Z,15.2
2022-09-14T04:38:00.924Z,15.3
2022-09-14T04:39:01.054Z,15.2
2022-09-14T04:41:00.924Z,15.3
2022-09-14T04:43:00.909Z,15.2
2022-09-14T04:44:00.924Z,15.3
2022-09-14T04:46:00.963Z,15.2
2022-09-14T04:47:00.999Z,15.4
2022-09-14T04:48:01.011Z,15.2
2022-09-14T04:50:01.013Z,15.3
2022-09-14T04:52:00.941Z,15.4
2022-09-14T04:56:00.944Z,15.2
2022-09-14T04:57:00.935Z,15.3
2022-09-14T04:58:00.948Z,15.4
2022-09-14T05:01:01.030Z,15.2
2022-09-14T05:03:00.968Z,15.3
2022-09-14T05:04:00.921Z,15.2
2022-09-14T05:05:00.911Z,15.4
2022-09-14T05:06:01.010Z,15.2
2022-09-14T05:09:01.051Z,15.2
2022-09-14T05:11:00.952Z,15.2
2022-09-14T05:12:01.037Z,15.3
2022-09-14T05:14:01.055Z,15.3
2022-09-14T05:19:00.944Z,15.2
2022-09-14T05:20:01.030Z,15.3
2022-09-14T05:22:00.964Z,15.3
2022-09-14T05:25:00.956Z,15.5
2022-09-14T05:26:00.958Z,15.3
2022-09-14T05:28:00.920Z,15.5
2022-09-14T05:29:00.932Z,15.3
2022-09-14T05:30:01.044Z,15.4
2022-09-14T05:33:00.965Z,15.4
2022-09-14T05:34:00.974Z,15.5
2022-09-14T05:35:00.936Z,15.4
2022-09-14T05:37:00.950Z,15.6
2022-09-14T05:38:01.097Z,15.5
2022-09-14T05:40:01.015Z,15.5
2022-09-14T05:41:00.982Z,15.6
2022-09-14T05:43:00.996Z,15.4
2022-09-14T05:45:00.983Z,15.4
2022-09-14T05:48:00.942Z,15.4
2022-09-14T05:50:00.998Z,15.5
2022-09-14T05:53:00.944Z,15.6
2022-09-14T05:54:00.989Z,15.5
2022-09-14T05:58:01.041Z,15.8
2022-09-14T06:00:00.958Z,15.6
2022-09-14T06:02:01.018Z,15.7
2022-09-14T06:04:00.955Z,15.8
2022-09-14T06:06:00.954Z,15.7
2022-09-14T06:10:00.927Z,15.8
2022-09-14T06:13:00.948Z,15.7
2022-09-14T06:14:00.943Z,15.8
2022-09-14T06:15:00.999Z,15.9
2022-09-14T06:17:00.950Z,15.8
2022-09-14T06:19:00.975Z,15.9
2022-09-14T06:20:04.330Z,16
2022-09-14T06:21:00.988Z,15.9
2022-09-14T06:24:00.969Z,16
2022-09-14T06:27:00.915Z,16.1
2022-09-14T06:28:00.963Z,15.9
2022-09-14T06:30:01.095Z,16
2022-09-14T06:32:01.021Z,15.9
2022-09-14T06:33:01.147Z,16.1
2022-09-14T06:36:00.940Z,15.9
2022-09-14T06:37:00.921Z,16
2022-09-14T06:39:00.908Z,16
2022-09-14T06:41:00.934Z,16.1
2022-09-14T06:42:00.990Z,16.2
2022-09-14T06:44:01.098Z,16.1
2022-09-14T06:47:00.944Z,16
2022-09-14T06:49:00.951Z,16.1
2022-09-14T06:51:00.923Z,16.2
2022-09-14T06:52:00.946Z,16.1
2022-09-14T06:54:00.904Z,16
2022-09-14T06:55:00.915Z,16.1
2022-09-14T06:58:00.934Z,16.2
2022-09-14T06:59:00.905Z,16.1
2022-09-14T07:01:00.916Z,16.2
2022-09-14T07:03:00.950Z,16.3
2022-09-14T07:04:00.923Z,16
2022-09-14T07:05:00.927Z,16.1
2022-09-14T07:07:00.940Z,16.2
2022-09-14T07:09:00.893Z,16.2
2022-09-14T07:15:00.917Z,16.3
2022-09-14T07:19:00.938Z,16.2
2022-09-14T07:21:04.857Z,16.3
2022-09-14T07:27:00.921Z,16.2
2022-09-14T07:28:00.930Z,16.4
2022-09-14T07:31:01.031Z,16.4
2022-09-14T07:36:00.899Z,16.5
2022-09-14T07:37:00.954Z,16.4
2022-09-14T07:39:00.909Z,16.5
2022-09-14T07:40:01.026Z,16.6
2022-09-14T07:43:00.921Z,16.4
2022-09-14T07:45:01.031Z,16.5
2022-09-14T07:47:00.960Z,16.4
2022-09-14T07:48:00.955Z,16.5
2022-09-14T07:52:00.903Z,16.4
2022-09-14T07:53:00.950Z,16.6
2022-09-14T07:56:00.906Z,16.6
2022-09-14T07:57:00.916Z,16.5
2022-09-14T08:00:00.938Z,16.6
2022-09-14T08:02:01.004Z,16.7
2022-09-14T08:03:00.893Z,16.6
2022-09-14T08:05:00.893Z,16.5
2022-09-14T08:06:00.931Z,16.6
2022-09-14T08:08:00.947Z,16.5
2022-09-14T08:09:00.969Z,16.6
2022-09-14T08:13:00.970Z,16.5
2022-09-14T08:14:00.971Z,16.6
2022-09-14T08:15:00.941Z,16.4
2022-09-14T08:16:00.945Z,16.5
2022-09-14T08:18:00.939Z,16.7
2022-09-14T08:19:00.990Z,16.6
2022-09-14T08:23:00.979Z,16.7
2022-09-14T08:24:00.973Z,16.6
2022-09-14T08:27:00.940Z,16.7
2022-09-14T08:28:00.956Z,16.6
2022-09-14T08:31:00.937Z,16.8
2022-09-14T08:33:01.915Z,16.6
2022-09-14T08:34:00.928Z,16.8
2022-09-14T08:36:00.974Z,16.9
2022-09-14T08:39:00.972Z,16.9
2022-09-14T08:40:00.989Z,16.8
2022-09-14T08:42:00.951Z,16.9
2022-09-14T08:43:00.957Z,16.8
2022-09-14T08:47:00.975Z,16.9
2022-09-14T08:48:00.999Z,16.8
2022-09-14T08:49:01.034Z,16.9
2022-09-14T08:51:00.909Z,16.9
2022-09-14T08:55:00.945Z,16.8
2022-09-14T08:56:00.945Z,16.9
2022-09-14T08:58:00.986Z,16.8
2022-09-14T08:59:00.962Z,16.9
2022-09-14T09:01:01.031Z,16.9
2022-09-14T09:02:00.952Z,16.8
2022-09-14T09:04:00.990Z,16.9
2022-09-14T09:08:00.935Z,17
2022-09-14T09:09:00.929Z,16.9
2022-09-14T09:10:00.986Z,17
2022-09-14T09:16:00.972Z,17.1
2022-09-14T09:17:00.953Z,16.9
2022-09-14T09:18:00.925Z,17.2
2022-09-14T09:19:00.918Z,17.1
2022-09-14T09:20:00.938Z,17.2
2022-09-14T09:21:00.924Z,17.1
2022-09-14T09:25:00.926Z,17.2
2022-09-14T09:27:00.980Z,17.3
2022-09-14T09:29:00.926Z,17.2
2022-09-14T09:30:00.982Z,17.3
2022-09-14T09:34:01.030Z,17.2
2022-09-14T09:36:00.963Z,17.4
2022-09-14T09:37:00.956Z,17.3
2022-09-14T09:39:04.916Z,17.3
2022-09-14T09:41:00.972Z,17.4
2022-09-14T09:43:00.930Z,17.4
2022-09-14T09:45:03.123Z,17.4
2022-09-14T09:47:01.137Z,17.5
2022-09-14T09:49:00.903Z,17.3
2022-09-14T09:50:00.907Z,17.4
2022-09-14T09:51:00.981Z,17.3
2022-09-14T09:53:04.699Z,17.5
2022-09-14T09:54:00.983Z,17.3
2022-09-14T09:56:00.900Z,17.2
2022-09-14T09:57:00.908Z,17.5
2022-09-14T09:58:01.018Z,17.4
2022-09-14T10:01:00.978Z,17.3
2022-09-14T10:03:00.940Z,17.5
2022-09-14T10:05:01.041Z,17.5
2022-09-14T10:07:00.906Z,17.7
2022-09-14T10:09:00.971Z,17.6
2022-09-14T10:13:00.917Z,17.6
2022-09-14T10:16:00.991Z,17.4
2022-09-14T10:17:00.953Z,17.6
2022-09-14T10:19:00.918Z,17.6
2022-09-14T10:20:00.933Z,17.5
2022-09-14T10:22:00.966Z,17.7
2022-09-14T10:24:00.897Z,17.5
2022-09-14T10:26:00.929Z,17.6
2022-09-14T10:27:00.945Z,17.5
2022-09-14T10:29:00.905Z,17.5
2022-09-14T10:36:00.915Z,17.4
2022-09-14T10:40:00.997Z,17.5
2022-09-14T10:43:00.895Z,17.4
2022-09-14T10:45:00.898Z,17.6
2022-09-14T10:46:00.970Z,17.5
2022-09-14T10:51:00.941Z,17.6
2022-09-14T10:53:00.920Z,17.6
2022-09-14T10:55:00.926Z,17.6
2022-09-14T10:57:00.934Z,17.5
2022-09-14T10:58:00.944Z,17.7
2022-09-14T10:59:00.951Z,17.6
2022-09-14T11:01:00.931Z,17.7
2022-09-14T11:02:00.970Z,17.6
2022-09-14T11:10:00.941Z,17.7
2022-09-14T11:11:00.938Z,17.6
2022-09-14T11:12:00.997Z,17.7
2022-09-14T11:13:01.082Z,17.6
2022-09-14T11:15:00.980Z,17.5
2022-09-14T11:16:00.993Z,17.6
2022-09-14T11:19:00.994Z,17.5
2022-09-14T11:23:00.914Z,17.5
2022-09-14T11:26:00.912Z,17.6
2022-09-14T11:31:00.981Z,17.7
2022-09-14T11:32:19.622Z,17.6
2022-09-14T11:33:00.977Z,17.7
2022-09-14T11:34:01.021Z,17.8
2022-09-14T11:36:00.957Z,17.7
2022-09-14T11:38:00.975Z,17.7
2022-09-14T11:40:00.966Z,17.8
2022-09-14T11:41:00.974Z,17.7
2022-09-14T11:42:00.973Z,17.9
2022-09-14T11:44:00.949Z,17.8
2022-09-14T11:45:00.925Z,17.9
2022-09-14T11:46:01.010Z,18
2022-09-14T11:48:00.911Z,18
2022-09-14T11:53:00.960Z,18.1
2022-09-14T11:55:00.920Z,18.2
2022-09-14T11:56:01.006Z,18.1
2022-09-14T11:59:00.898Z,18.1
2022-09-14T12:00:00.980Z,18
2022-09-14T12:04:00.948Z,18
2022-09-14T12:07:00.946Z,18.1
2022-09-14T12:09:00.972Z,18
2022-09-14T12:11:00.902Z,18.1
2022-09-14T12:12:00.988Z,18
2022-09-14T12:14:00.894Z,18.1
2022-09-14T12:19:00.932Z,18
2022-09-14T12:20:00.982Z,18.1
2022-09-14T12:24:00.922Z,18.1
2022-09-14T12:27:00.899Z,18
2022-09-14T12:30:01.014Z,18.1
2022-09-14T12:31:01.008Z,18
2022-09-14T12:33:00.974Z,18
2022-09-14T12:34:00.956Z,17.9
2022-09-14T12:35:00.950Z,18
2022-09-14T12:39:00.932Z,17.9
2022-09-14T12:41:00.906Z,18
2022-09-14T12:42:00.903Z,18.1
2022-09-14T12:43:00.899Z,18
2022-09-14T12:46:00.945Z,18.1
2022-09-14T12:47:00.906Z,18
2022-09-14T12:48:00.949Z,18.2
2022-09-14T12:50:00.957Z,18.1
2022-09-14T12:52:00.931Z,18.2
2022-09-14T12:53:00.965Z,18.1
2022-09-14T12:55:00.910Z,18.3
2022-09-14T12:58:00.904Z,18.3
2022-09-14T13:00:00.984Z,18.4
2022-09-14T13:02:00.975Z,18.5
2022-09-14T13:07:00.907Z,18.6
2022-09-14T13:09:00.923Z,18.5
2022-09-14T13:10:00.923Z,18.6
2022-09-14T13:11:00.937Z,18.7
2022-09-14T13:13:00.899Z,18.6
2022-09-14T13:14:00.946Z,18.7
2022-09-14T13:16:00.961Z,18.8
2022-09-14T13:19:00.921Z,18.9
2022-09-14T13:20:00.938Z,19
2022-09-14T13:22:00.962Z,19.1
2022-09-14T13:25:00.949Z,19
2022-09-14T13:27:00.915Z,19.1
2022-09-14T13:28:00.910Z,19.2
2022-09-14T13:30:00.919Z,19.3
2022-09-14T13:33:01.033Z,19.4
2022-09-14T13:39:00.927Z,19.5
2022-09-14T13:41:00.983Z,19.5
2022-09-14T13:43:00.957Z,19.5
2022-09-14T13:45:00.912Z,19.5
2022-09-14T13:47:00.982Z,19.4
2022-09-14T13:49:00.973Z,19.4
2022-09-14T13:52:04.627Z,19.2
2022-09-14T13:54:00.924Z,19.1
2022-09-14T13:56:00.938Z,19.1
2022-09-14T13:57:00.919Z,19
2022-09-14T13:58:00.959Z,19.1
2022-09-14T14:00:00.943Z,18.9
2022-09-14T14:02:01.081Z,18.8
2022-09-14T14:05:00.946Z,18.8
2022-09-14T14:07:00.977Z,18.7
2022-09-14T14:09:00.942Z,18.7
2022-09-14T14:10:00.931Z,18.6
2022-09-14T14:12:00.985Z,18.7
2022-09-14T14:14:01.019Z,18.6
2022-09-14T14:17:01.039Z,18.7
2022-09-14T14:23:00.941Z,18.4
2022-09-14T14:24:12.903Z,18.5
2022-09-14T14:25:14.045Z,18.3
2022-09-14T14:27:00.925Z,18.4
2022-09-14T14:28:01.114Z,18.5
2022-09-14T14:32:00.991Z,18.2
2022-09-14T14:33:00.956Z,18.3
2022-09-14T14:35:00.967Z,18.2
2022-09-14T14:37:00.973Z,18.3
2022-09-14T14:38:00.989Z,18.2
2022-09-14T14:39:01.020Z,18.3
2022-09-14T14:42:00.947Z,18.1
2022-09-14T14:43:00.987Z,18
2022-09-14T14:45:00.972Z,18.1
2022-09-14T14:47:00.943Z,18.2
2022-09-14T14:49:01.033Z,18
2022-09-14T14:51:00.926Z,18.1
2022-09-14T14:53:01.033Z,18
2022-09-14T14:59:02.300Z,17.9
2022-09-14T15:00:01.087Z,18
2022-09-14T15:03:00.910Z,18
2022-09-14T15:05:00.955Z,17.9
2022-09-14T15:07:00.967Z,17.8
2022-09-14T15:12:01.018Z,18
2022-09-14T15:13:00.947Z,17.8
2022-09-14T15:15:00.905Z,17.8
2022-09-14T15:17:00.946Z,17.7
2022-09-14T15:19:00.905Z,17.8
2022-09-14T15:20:00.984Z,17.6
2022-09-14T15:22:01.482Z,17.8
2022-09-14T15:23:00.901Z,17.6
2022-09-14T15:24:00.907Z,17.5
2022-09-14T15:28:00.928Z,17.5
2022-09-14T15:29:00.908Z,17.6
2022-09-14T15:30:00.972Z,17.4
2022-09-14T15:31:03.078Z,17.5
2022-09-14T15:33:01.002Z,17.4
2022-09-14T15:39:00.902Z,17.2
2022-09-14T15:40:01.075Z,17.3
2022-09-14T15:46:00.967Z,17.2
2022-09-14T15:47:00.927Z,17.3
2022-09-14T15:48:00.918Z,17.2
2022-09-14T15:50:00.927Z,17.1
2022-09-14T15:51:00.951Z,17.2
2022-09-14T15:58:00.910Z,17.2
2022-09-14T15:59:00.940Z,17.1
2022-09-14T16:01:00.928Z,17.2
2022-09-14T16:03:00.903Z,17.2
2022-09-14T16:05:00.943Z,17
2022-09-14T16:06:00.967Z,17.2
2022-09-14T16:08:00.947Z,17.1
2022-09-14T16:11:00.968Z,17.2
2022-09-14T16:13:00.974Z,17
2022-09-14T16:14:00.904Z,17.1
2022-09-14T16:18:00.952Z,17.2
2022-09-14T16:20:00.961Z,17.1
2022-09-14T16:22:00.974Z,17.2
2022-09-14T16:24:00.969Z,17.1
2022-09-14T16:26:01.003Z,17
2022-09-14T16:30:00.932Z,17.1
2022-09-14T16:31:00.987Z,17
2022-09-14T16:33:01.784Z,17
2022-09-14T16:34:00.902Z,16.9
2022-09-14T16:35:03.630Z,17
2022-09-14T16:45:00.927Z,17
2022-09-14T16:46:00.993Z,16.9
2022-09-14T16:48:00.946Z,17
2022-09-14T16:49:00.972Z,16.8
2022-09-14T16:51:00.890Z,16.9
2022-09-14T16:52:00.913Z,17
2022-09-14T16:53:00.909Z,16.8
2022-09-14T16:54:00.919Z,16.9
2022-09-14T16:55:00.929Z,17
2022-09-14T17:01:00.994Z,17
2022-09-14T17:02:00.913Z,16.9
2022-09-14T17:05:00.907Z,17
2022-09-14T17:07:00.901Z,16.9
2022-09-14T17:09:00.897Z,17
2022-09-14T17:10:00.978Z,16.9
2022-09-14T17:12:00.980Z,16.8
2022-09-14T17:14:00.968Z,17
2022-09-14T17:16:00.995Z,16.9
2022-09-14T17:18:00.884Z,16.8
2022-09-14T17:20:00.927Z,16.9
2022-09-14T17:22:00.921Z,17
2022-09-14T17:23:00.957Z,16.8
2022-09-14T17:29:00.953Z,17
2022-09-14T17:30:01.023Z,16.8
2022-09-14T17:32:00.910Z,16.8
2022-09-14T17:33:00.942Z,17
2022-09-14T17:34:01.069Z,16.9
2022-09-14T17:36:00.895Z,17
2022-09-14T17:37:00.911Z,16.9
2022-09-14T17:38:00.990Z,17
2022-09-14T17:39:01.015Z,16.9
2022-09-14T17:41:00.949Z,17
2022-09-14T17:42:00.990Z,16.8
2022-09-14T17:43:01.173Z,16.9
2022-09-14T17:45:01.005Z,17
2022-09-14T17:48:00.944Z,16.8
2022-09-14T17:50:00.919Z,16.9
2022-09-14T17:52:00.949Z,16.8
2022-09-14T17:54:00.973Z,16.8
2022-09-14T17:59:00.974Z,16.9
2022-09-14T18:01:01.024Z,16.8
2022-09-14T18:03:00.952Z,16.8
2022-09-14T18:09:00.994Z,16.7
2022-09-14T18:12:00.940Z,16.7
2022-09-14T18:13:00.944Z,16.8
2022-09-14T18:15:01.142Z,16.9
2022-09-14T18:17:01.003Z,17
2022-09-14T18:20:00.955Z,16.8
2022-09-14T18:23:00.967Z,16.7
2022-09-14T18:24:00.972Z,16.9
2022-09-14T18:27:00.915Z,16.7
2022-09-14T18:28:00.973Z,16.8
2022-09-14T18:29:00.986Z,16.9
2022-09-14T18:31:01.054Z,16.7
2022-09-14T18:34:00.987Z,16.8
2022-09-14T18:37:00.953Z,16.9
2022-09-14T18:41:00.913Z,16.7
2022-09-14T18:43:00.972Z,16.8
2022-09-14T18:45:00.935Z,16.9
2022-09-14T18:47:01.023Z,16.9
2022-09-14T18:50:00.939Z,16.9
2022-09-14T18:51:00.995Z,16.8
2022-09-14T19:01:00.991Z,16.9
2022-09-14T19:02:01.011Z,16.8
2022-09-14T19:05:00.936Z,16.8
2022-09-14T19:06:00.899Z,16.9
2022-09-14T19:07:00.927Z,16.8
2022-09-14T19:09:00.915Z,17
2022-09-14T19:10:00.999Z,16.8
2022-09-14T19:12:00.925Z,16.9
2022-09-14T19:13:00.958Z,17
2022-09-14T19:17:00.909Z,17
2022-09-14T19:18:00.933Z,16.9
2022-09-14T19:20:00.955Z,16.9
2022-09-14T19:30:00.972Z,17
2022-09-14T19:34:00.943Z,16.9
2022-09-14T19:35:00.958Z,17
2022-09-14T19:37:00.911Z,17
2022-09-14T19:39:01.018Z,16.9
2022-09-14T19:42:00.939Z,17.1
2022-09-14T19:44:00.979Z,17
2022-09-14T19:46:00.979Z,17.1
2022-09-14T19:48:00.981Z,17.1
2022-09-14T19:50:00.938Z,17.1
2022-09-14T19:51:00.973Z,17
2022-09-14T19:53:04.400Z,17.1
2022-09-14T19:55:00.912Z,17
2022-09-14T19:56:00.910Z,17.1
2022-09-14T19:58:00.965Z,17
2022-09-14T20:00:00.965Z,17.1
2022-09-14T20:02:01.053Z,17.2
2022-09-14T20:03:01.001Z,17.1
2022-09-14T20:04:00.935Z,17
2022-09-14T20:05:00.932Z,17.1
2022-09-14T20:06:00.956Z,17
2022-09-14T20:07:00.991Z,17.1
2022-09-14T20:09:00.941Z,17
2022-09-14T20:10:01.006Z,17.1
2022-09-14T20:12:01.028Z,17.2
2022-09-14T20:14:00.919Z,17.2
2022-09-14T20:16:00.962Z,17.1
2022-09-14T20:19:01.006Z,17
2022-09-14T20:23:00.963Z,16.8
2022-09-14T20:25:00.949Z,16.5
2022-09-14T20:28:01.073Z,16.2
2022-09-14T20:30:00.975Z,16.1
2022-09-14T20:33:01.003Z,15.9
2022-09-14T20:35:00.920Z,16
2022-09-14T20:36:00.968Z,15.9
2022-09-14T20:38:00.898Z,15.8
2022-09-14T20:40:00.920Z,15.5
2022-09-14T20:41:00.931Z,15.8
2022-09-14T20:42:00.911Z,15.6
2022-09-14T20:46:01.015Z,15.4
2022-09-14T20:48:00.910Z,15.4
2022-09-14T20:50:00.894Z,15.3
2022-09-14T20:51:00.903Z,15.4
2022-09-14T20:52:00.950Z,15.3
2022-09-14T20:53:01.009Z,15.2
2022-09-14T20:54:00.978Z,15.3
2022-09-14T20:57:04.215Z,15.3
2022-09-14T20:58:00.976Z,15.4
2022-09-14T21:01:00.951Z,15.4
2022-09-14T21:03:01.055Z,15.2
2022-09-14T21:04:00.920Z,15.3
2022-09-14T21:08:00.949Z,15.2
2022-09-14T21:10:00.906Z,15.1
2022-09-14T21:11:00.911Z,15.4
2022-09-14T21:12:00.905Z,15.3
2022-09-14T21:18:00.974Z,15.2
2022-09-14T21:19:00.974Z,15.3
2022-09-14T21:21:02.866Z,15.2
2022-09-14T21:23:00.970Z,15.2
2022-09-14T21:26:00.924Z,15.2
2022-09-14T21:27:00.933Z,15
2022-09-14T21:29:00.922Z,15.2
2022-09-14T21:31:01.047Z,15.1
2022-09-14T21:35:00.920Z,15
2022-09-14T21:37:00.926Z,15.2
2022-09-14T21:40:00.933Z,15.2
2022-09-14T21:41:00.983Z,15
2022-09-14T21:43:00.905Z,15.1
2022-09-14T21:44:00.908Z,15
2022-09-14T21:46:00.953Z,15.1
2022-09-14T21:47:00.951Z,14.9
2022-09-14T21:49:00.938Z,14.9
2022-09-14T21:51:00.924Z,14.9
2022-09-14T21:52:00.910Z,15
2022-09-14T21:53:00.945Z,14.8
2022-09-14T21:55:00.925Z,14.9
2022-09-14T21:57:00.928Z,14.8
2022-09-14T21:58:00.908Z,14.9
2022-09-14T21:59:00.912Z,15
2022-09-14T22:00:01.015Z,14.9
2022-09-14T22:05:00.903Z,15
2022-09-14T22:09:00.922Z,14.9
2022-09-14T22:10:00.926Z,15
2022-09-14T22:11:01.035Z,14.9
2022-09-14T22:13:00.970Z,15
2022-09-14T22:14:00.930Z,14.9
2022-09-14T22:15:00.973Z,15
2022-09-14T22:17:00.902Z,14.9
2022-09-14T22:18:02.317Z,15
2022-09-14T22:19:00.973Z,14.9
2022-09-14T22:21:00.907Z,14.9
2022-09-14T22:25:00.928Z,14.8
2022-09-14T22:27:00.929Z,14.9
2022-09-14T22:29:00.898Z,14.8
2022-09-14T22:31:00.941Z,14.6
2022-09-14T22:35:00.898Z,14.7
2022-09-14T22:38:00.943Z,14.5
2022-09-14T22:41:00.899Z,14.4
2022-09-14T22:43:00.997Z,14.5
2022-09-14T22:45:00.980Z,14.3
2022-09-14T22:46:00.996Z,14.4
2022-09-14T22:48:00.894Z,14.3
2022-09-14T22:49:00.924Z,14.2
2022-09-14T22:50:00.930Z,14.1
2022-09-14T22:51:00.953Z,14.2
2022-09-14T22:53:00.919Z,14
2022-09-14T22:54:00.912Z,14.2
2022-09-14T22:55:00.970Z,14
2022-09-14T22:57:00.962Z,14.2
2022-09-14T22:59:00.964Z,14.1
2022-09-14T23:01:00.931Z,14.1
2022-09-14T23:03:00.950Z,14
2022-09-14T23:05:00.937Z,13.9
2022-09-14T23:06:00.931Z,14.1
2022-09-14T23:07:00.973Z,14
2022-09-14T23:09:00.921Z,14
2022-09-14T23:11:00.902Z,13.9
2022-09-14T23:12:00.954Z,14
2022-09-14T23:14:00.944Z,14.1
2022-09-14T23:17:00.968Z,14
2022-09-14T23:18:00.951Z,13.9
2022-09-14T23:20:00.896Z,14
2022-09-14T23:22:00.921Z,13.9
2022-09-14T23:23:00.907Z,14
2022-09-14T23:25:00.924Z,13.9
2022-09-14T23:27:00.911Z,13.9
2022-09-14T23:31:00.998Z,14
2022-09-14T23:33:00.945Z,13.9
2022-09-14T23:34:00.922Z,14
2022-09-14T23:37:01.116Z,13.8
2022-09-14T23:39:00.894Z,14
2022-09-14T23:46:00.923Z,14.1
2022-09-14T23:47:00.906Z,14
2022-09-14T23:50:00.896Z,14.1
2022-09-14T23:51:00.907Z,13.9
2022-09-14T23:52:00.951Z,14
2022-09-14T23:53:00.948Z,14.1
2022-09-14T23:55:00.920Z,14
2022-09-14T23:56:00.953Z,14.1
2022-09-14T23:57:00.955Z,14
2022-09-14T23:59:00.958Z,14.2
